Time;durP1;ratioP1;P1;durP2;ratioP2;P2;SDS_P1;SDS_P2;PMS_P1;PMS_P2;Temp;Humidity;BMP_temperature;BMP_pressure;BME280_temperature;BME280_humidity;BME280_pressure;Samples;Min_cycle;Max_cycle;Signal;HPM_P1;HPM_P2
2023/03/20 00:01:36;;;;;;;24.93;11.33;;;9.80;99.90;;;;;;4941020;28;20118;-81
2023/03/20 00:04:02;;;;;;;19.73;10.18;;;9.80;99.90;;;;;;4974230;28;20505;-81
2023/03/20 00:06:28;;;;;;;21.23;11.30;;;9.70;99.90;;;;;;4957300;28;20126;-81
2023/03/20 00:08:56;;;;;;;22.33;10.93;;;9.70;99.90;;;;;;4956867;28;20097;-81
2023/03/20 00:11:35;;;;;;;18.80;10.43;;;9.70;99.90;;;;;;4957236;28;20038;-82
2023/03/20 00:14:05;;;;;;;21.70;11.00;;;9.70;99.90;;;;;;4956270;28;20395;-82
2023/03/20 00:16:33;;;;;;;23.53;11.10;;;9.80;99.90;;;;;;4973304;28;20031;-82
2023/03/20 00:18:59;;;;;;;20.83;10.63;;;9.80;99.90;;;;;;4974558;28;20069;-81
2023/03/20 00:21:25;;;;;;;22.00;11.90;;;9.80;99.90;;;;;;4974265;28;20054;-82
2023/03/20 00:23:51;;;;;;;22.43;10.53;;;9.80;99.90;;;;;;4924836;28;20044;-82
2023/03/20 00:26:18;;;;;;;21.87;11.10;;;9.80;99.90;;;;;;4956950;28;20125;-82
2023/03/20 00:28:47;;;;;;;23.23;11.00;;;9.80;99.90;;;;;;4956781;28;20035;-83
2023/03/20 00:31:26;;;;;;;20.87;10.40;;;9.70;99.90;;;;;;4956188;28;20015;-82
2023/03/20 00:33:54;;;;;;;19.50;10.73;;;9.80;99.90;;;;;;4974100;28;20363;-82
2023/03/20 00:36:21;;;;;;;18.07;9.73;;;9.70;99.90;;;;;;4959610;28;20019;-83
2023/03/20 00:38:46;;;;;;;18.73;10.47;;;9.70;99.90;;;;;;4978215;28;20033;-83
2023/03/20 00:41:37;;;;;;;19.90;11.10;;;9.70;99.90;;;;;;4977020;28;20022;-83
2023/03/20 00:44:35;;;;;;;17.60;9.93;;;9.70;99.90;;;;;;4961115;28;20067;-82
2023/03/20 00:47:04;;;;;;;18.67;9.77;;;9.70;99.90;;;;;;4992445;28;20550;-82
2023/03/20 00:49:34;;;;;;;16.97;9.97;;;9.70;99.90;;;;;;4996360;28;20031;-82
2023/03/20 00:52:02;;;;;;;22.20;11.10;;;9.70;99.90;;;;;;4979657;28;20023;-83
2023/03/20 00:54:28;;;;;;;17.83;10.17;;;9.70;99.90;;;;;;4979874;28;20026;-82
2023/03/20 00:56:58;;;;;;;21.20;11.20;;;9.70;99.90;;;;;;4964781;28;20394;-82
2023/03/20 00:59:30;;;;;;;20.73;11.83;;;9.70;99.90;;;;;;4979698;28;20038;-82
2023/03/20 01:01:57;;;;;;;26.93;13.23;;;9.70;99.90;;;;;;4996333;28;20031;-82
2023/03/20 01:04:23;;;;;;;22.77;13.93;;;9.70;99.90;;;;;;4979636;28;20129;-83
2023/03/20 01:06:49;;;;;;;26.13;13.60;;;9.70;99.90;;;;;;4963284;28;20119;-83
2023/03/20 01:09:15;;;;;;;25.67;13.60;;;9.70;99.90;;;;;;4963363;28;20050;-82
2023/03/20 01:11:43;;;;;;;27.30;14.50;;;9.70;99.90;;;;;;4997376;28;20085;-82
2023/03/20 01:14:14;;;;;;;30.10;16.90;;;9.70;99.90;;;;;;4996731;28;20403;-82
2023/03/20 01:16:40;;;;;;;30.40;16.57;;;9.60;99.90;;;;;;4979302;28;20510;-82
2023/03/20 01:19:06;;;;;;;31.27;17.90;;;9.60;99.90;;;;;;4995434;28;20099;-82
2023/03/20 01:21:31;;;;;;;33.47;19.03;;;9.60;99.90;;;;;;4979382;28;20023;-82
2023/03/20 01:23:57;;;;;;;28.83;16.97;;;9.60;99.90;;;;;;4996590;28;20031;-82
2023/03/20 01:26:38;;;;;;;25.57;14.33;;;9.60;99.90;;;;;;4963195;28;20058;-82
2023/03/20 01:29:16;;;;;;;24.40;13.00;;;9.60;99.90;;;;;;4996841;28;20042;-83
2023/03/20 01:31:41;;;;;;;26.67;14.07;;;9.50;99.90;;;;;;4996263;28;20030;-82
2023/03/20 01:34:09;;;;;;;24.23;12.90;;;9.50;99.90;;;;;;4979114;28;20027;-82
2023/03/20 01:36:36;;;;;;;27.03;13.00;;;9.50;99.90;;;;;;4979047;28;20033;-82
2023/03/20 01:39:02;;;;;;;27.50;13.00;;;9.50;99.90;;;;;;4994813;28;20037;-82
2023/03/20 01:41:28;;;;;;;26.53;13.17;;;9.50;99.90;;;;;;4978586;28;20069;-82
2023/03/20 01:43:54;;;;;;;28.03;13.00;;;9.40;99.90;;;;;;4979008;28;20019;-82
2023/03/20 01:46:30;;;;;;;22.90;10.73;;;9.40;99.90;;;;;;4996400;28;20050;-82
2023/03/20 01:49:27;;;;;;;29.50;13.30;;;9.40;99.90;;;;;;4978104;28;20046;-81
2023/03/20 01:51:55;;;;;;;23.33;11.23;;;9.40;99.90;;;;;;4995835;28;20553;-82
2023/03/20 01:54:34;;;;;;;31.03;13.17;;;9.40;99.90;;;;;;4994856;28;20033;-82
2023/03/20 01:57:11;;;;;;;25.30;12.40;;;9.40;99.90;;;;;;4978796;28;20422;-83
2023/03/20 01:59:44;;;;;;;23.93;11.10;;;9.40;99.90;;;;;;4978531;28;20540;-83
2023/03/20 02:02:15;;;;;;;25.83;10.90;;;9.40;99.90;;;;;;4978320;28;20022;-83
2023/03/20 02:04:44;;;;;;;26.90;12.73;;;9.40;99.90;;;;;;4994725;28;20022;-83
2023/03/20 02:07:15;;;;;;;22.87;11.97;;;9.40;99.90;;;;;;4978133;28;20041;-83
2023/03/20 02:09:41;;;;;;;26.70;11.73;;;9.30;99.90;;;;;;4995687;28;20026;-83
2023/03/20 02:12:07;;;;;;;25.60;10.57;;;9.30;99.90;;;;;;4994285;28;20081;-83
2023/03/20 02:14:33;;;;;;;22.40;10.83;;;9.30;99.90;;;;;;4978342;28;20061;-83
2023/03/20 02:16:58;;;;;;;18.53;9.17;;;9.30;99.90;;;;;;4978461;28;20073;-83
2023/03/20 02:19:55;;;;;;;16.07;9.20;;;9.30;99.90;;;;;;4994703;28;20434;-83
2023/03/20 02:22:44;;;;;;;21.13;8.30;;;9.30;99.90;;;;;;4995592;28;20038;-82
2023/03/20 02:25:24;;;;;;;20.90;8.57;;;9.30;99.90;;;;;;4995475;28;20028;-83
2023/03/20 02:28:27;;;;;;;16.03;7.00;;;9.30;99.90;;;;;;4978995;28;20051;-82
2023/03/20 02:31:13;;;;;;;16.17;7.33;;;9.30;99.90;;;;;;4978516;28;20034;-82
2023/03/20 02:33:39;;;;;;;12.50;6.43;;;9.30;99.90;;;;;;4996041;28;20517;-84
2023/03/20 02:36:27;;;;;;;10.93;5.63;;;9.30;99.90;;;;;;4996849;28;20026;-84
2023/03/20 02:39:16;;;;;;;13.03;4.77;;;9.30;99.90;;;;;;4998309;28;20034;-84
2023/03/20 02:42:20;;;;;;;11.33;5.93;;;9.30;99.90;;;;;;4983001;28;20022;-84
2023/03/20 02:45:06;;;;;;;12.25;4.63;;;9.30;99.90;;;;;;4999201;28;20030;-84
2023/03/20 02:47:40;;;;;;;13.83;4.77;;;9.30;99.90;;;;;;4996362;28;20133;-84
2023/03/20 02:50:47;;;;;;;9.43;4.75;;;9.30;99.90;;;;;;4994450;28;20405;-83
2023/03/20 02:53:19;;;;;;;7.40;3.73;;;9.30;99.90;;;;;;4918776;29;20035;-85
2023/03/20 02:55:55;;;;;;;10.90;4.40;;;9.30;99.80;;;;;;4969944;28;20483;-83
2023/03/20 02:58:44;;;;;;;8.67;3.97;;;9.30;99.60;;;;;;4977466;28;20030;-82
2023/03/20 03:01:36;;;;;;;10.73;4.00;;;9.30;99.40;;;;;;4992858;28;20018;-83
2023/03/20 03:04:16;;;;;;;14.73;4.50;;;9.30;99.20;;;;;;4987804;28;20061;-82
2023/03/20 03:06:46;;;;;;;13.40;4.70;;;9.40;99.10;;;;;;4993208;28;20026;-82
2023/03/20 03:09:22;;;;;;;11.17;4.13;;;9.30;98.90;;;;;;4993392;28;20544;-82
2023/03/20 03:11:52;;;;;;;14.00;4.43;;;9.20;98.80;;;;;;4993499;28;20030;-82
2023/03/20 03:14:44;;;;;;;12.93;4.53;;;9.30;98.80;;;;;;4993098;28;20057;-82
2023/03/20 03:17:12;;;;;;;11.00;4.43;;;9.30;98.80;;;;;;4940515;28;20031;-82
2023/03/20 03:19:43;;;;;;;14.27;5.47;;;9.30;98.80;;;;;;4961436;28;20030;-84
2023/03/20 03:22:09;;;;;;;14.40;6.00;;;9.30;98.80;;;;;;4976805;28;20026;-82
2023/03/20 03:24:41;;;;;;;11.37;5.60;;;9.30;98.80;;;;;;4960976;28;20045;-82
2023/03/20 03:27:22;;;;;;;13.23;6.13;;;9.30;98.80;;;;;;4976721;28;20026;-82
2023/03/20 03:30:20;;;;;;;12.27;5.93;;;9.30;98.70;;;;;;4976467;28;20026;-82
2023/03/20 03:32:50;;;;;;;16.63;7.00;;;9.30;98.70;;;;;;4987375;28;20398;-81
2023/03/20 03:35:19;;;;;;;14.93;6.90;;;9.20;98.60;;;;;;4976669;28;20390;-82
2023/03/20 03:38:02;;;;;;;13.77;7.47;;;9.20;98.50;;;;;;4994534;28;20023;-82
2023/03/20 03:40:52;;;;;;;13.17;7.10;;;9.20;98.50;;;;;;4976567;28;20027;-81
2023/03/20 03:43:27;;;;;;;16.90;6.97;;;9.10;98.60;;;;;;4976494;28;20489;-82
2023/03/20 03:46:20;;;;;;;14.47;6.70;;;9.10;98.60;;;;;;4971453;28;20476;-82
2023/03/20 03:48:52;;;;;;;14.60;7.20;;;9.10;98.60;;;;;;4957194;28;20483;-82
2023/03/20 03:51:22;;;;;;;20.13;7.40;;;9.00;98.70;;;;;;4973299;28;20053;-82
2023/03/20 03:53:59;;;;;;;22.00;7.70;;;9.10;98.60;;;;;;4972736;28;20090;-81
2023/03/20 03:56:29;;;;;;;16.40;7.10;;;9.00;98.70;;;;;;4973346;28;20023;-82
2023/03/20 03:59:00;;;;;;;20.63;8.73;;;9.00;98.70;;;;;;4973523;28;20023;-81
2023/03/20 04:01:27;;;;;;;19.43;8.90;;;9.00;98.80;;;;;;4972953;28;20050;-80
2023/03/20 04:03:59;;;;;;;22.97;10.17;;;8.90;98.80;;;;;;4957356;28;20398;-81
2023/03/20 04:06:26;;;;;;;22.10;10.27;;;8.90;98.70;;;;;;4972959;28;20037;-81
2023/03/20 04:08:52;;;;;;;21.00;11.43;;;8.90;98.80;;;;;;4941159;28;20042;-82
2023/03/20 04:11:21;;;;;;;27.63;11.70;;;8.80;98.90;;;;;;4973556;28;20027;-80
2023/03/20 04:13:48;;;;;;;22.77;10.80;;;8.80;99.00;;;;;;4973015;28;20538;-84
2023/03/20 04:16:15;;;;;;;29.17;13.53;;;8.70;99.10;;;;;;4973730;28;20026;-84
2023/03/20 04:18:42;;;;;;;25.40;13.13;;;8.70;99.10;;;;;;4956797;28;20023;-84
2023/03/20 04:21:08;;;;;;;25.47;12.30;;;8.60;99.20;;;;;;4924814;28;20023;-83
2023/03/20 04:23:34;;;;;;;23.17;12.30;;;8.60;99.20;;;;;;4956711;28;20031;-83
2023/03/20 04:26:00;;;;;;;31.50;13.63;;;8.60;99.30;;;;;;4973058;28;20031;-84
2023/03/20 04:28:26;;;;;;;31.70;14.73;;;8.50;99.50;;;;;;4940678;28;20062;-83
2023/03/20 04:30:53;;;;;;;34.57;14.83;;;8.50;99.60;;;;;;4940403;28;20554;-84
2023/03/20 04:33:19;;;;;;;28.73;14.70;;;8.50;99.90;;;;;;4925109;28;20027;-83
2023/03/20 04:35:48;;;;;;;34.43;15.63;;;8.40;99.90;;;;;;4956484;28;20053;-83
2023/03/20 04:38:15;;;;;;;34.70;16.50;;;8.40;99.90;;;;;;4942004;28;20031;-83
2023/03/20 04:40:43;;;;;;;29.80;15.27;;;8.40;99.90;;;;;;4973869;28;20034;-84
2023/03/20 04:43:08;;;;;;;31.43;15.67;;;8.30;99.90;;;;;;4957106;28;20039;-83
2023/03/20 04:45:34;;;;;;;28.77;15.20;;;8.30;99.90;;;;;;4943242;28;20539;-83
2023/03/20 04:48:00;;;;;;;30.17;14.67;;;8.30;99.90;;;;;;4975790;28;20050;-83
2023/03/20 04:50:26;;;;;;;26.47;14.47;;;8.30;99.90;;;;;;4959760;28;20038;-84
2023/03/20 04:52:52;;;;;;;29.17;15.13;;;8.30;99.90;;;;;;4993051;28;20458;-83
2023/03/20 04:55:18;;;;;;;29.80;14.97;;;8.30;99.90;;;;;;4993550;28;20030;-84
2023/03/20 04:57:44;;;;;;;25.80;15.23;;;8.20;99.90;;;;;;4959900;28;20030;-84
2023/03/20 05:00:10;;;;;;;29.67;14.63;;;8.20;99.90;;;;;;4960451;28;20034;-84
2023/03/20 05:02:36;;;;;;;29.43;14.77;;;8.20;99.90;;;;;;4943947;28;20457;-83
2023/03/20 05:05:02;;;;;;;28.27;14.53;;;8.20;99.90;;;;;;4976448;28;20027;-83
2023/03/20 05:07:28;;;;;;;31.47;16.00;;;8.20;99.90;;;;;;4940938;28;20054;-83
2023/03/20 05:09:53;;;;;;;27.53;14.47;;;8.20;99.90;;;;;;4973740;28;20043;-82
2023/03/20 05:12:20;;;;;;;28.30;14.33;;;8.20;99.90;;;;;;4956862;28;20031;-84
2023/03/20 05:14:45;;;;;;;23.87;13.10;;;8.20;99.90;;;;;;4956554;28;20094;-84
2023/03/20 05:17:11;;;;;;;29.53;13.83;;;8.10;99.90;;;;;;4956476;28;20471;-82
2023/03/20 05:19:37;;;;;;;26.10;12.30;;;8.10;99.90;;;;;;4956083;28;20407;-81
2023/03/20 05:22:03;;;;;;;23.20;11.37;;;8.10;99.90;;;;;;4986948;28;20355;-80
2023/03/20 05:24:30;;;;;;;28.30;12.20;;;8.10;99.90;;;;;;4978469;28;20038;-80
2023/03/20 05:26:56;;;;;;;22.03;11.03;;;8.10;99.90;;;;;;4979430;28;20030;-80
2023/03/20 05:29:21;;;;;;;22.23;10.97;;;8.10;99.90;;;;;;4995183;28;20018;-79
2023/03/20 05:31:47;;;;;;;23.73;10.60;;;8.10;99.90;;;;;;4979380;28;20030;-80
2023/03/20 05:34:13;;;;;;;25.93;12.13;;;8.10;99.90;;;;;;4962885;28;20034;-81
2023/03/20 05:36:39;;;;;;;23.80;10.67;;;8.10;99.90;;;;;;4978839;28;20097;-81
2023/03/20 05:39:05;;;;;;;21.63;10.80;;;8.10;99.90;;;;;;4995112;28;20121;-81
2023/03/20 05:41:30;;;;;;;24.77;11.90;;;8.10;99.90;;;;;;4995217;28;20050;-81
2023/03/20 05:43:56;;;;;;;20.53;11.10;;;8.10;99.90;;;;;;4979227;28;20093;-82
2023/03/20 05:46:22;;;;;;;23.20;11.43;;;8.10;99.90;;;;;;4978456;28;20655;-83
2023/03/20 05:48:48;;;;;;;23.00;11.60;;;8.10;99.90;;;;;;4995971;28;20050;-81
2023/03/20 05:51:14;;;;;;;19.97;11.17;;;8.10;99.90;;;;;;4996652;28;20105;-81
2023/03/20 05:53:40;;;;;;;25.50;12.10;;;8.10;99.90;;;;;;4978979;28;20038;-82
2023/03/20 05:56:06;;;;;;;23.33;10.60;;;8.10;99.90;;;;;;4962024;28;20027;-81
2023/03/20 05:58:31;;;;;;;19.87;10.07;;;8.10;99.90;;;;;;4994774;28;20062;-81
2023/03/20 06:00:57;;;;;;;18.33;10.20;;;8.10;99.90;;;;;;4978234;28;20056;-81
2023/03/20 06:03:23;;;;;;;20.83;9.83;;;8.10;99.90;;;;;;4978068;28;20022;-80
2023/03/20 06:05:49;;;;;;;21.80;9.60;;;8.10;99.90;;;;;;4962505;28;20046;-80
2023/03/20 06:08:15;;;;;;;19.80;9.23;;;8.10;99.90;;;;;;4978786;28;20053;-81
2023/03/20 06:10:40;;;;;;;20.23;9.43;;;8.10;99.90;;;;;;4977237;28;20368;-80
2023/03/20 06:13:06;;;;;;;21.23;9.70;;;8.10;99.90;;;;;;4977150;28;20038;-80
2023/03/20 06:15:32;;;;;;;19.77;9.37;;;8.10;99.90;;;;;;5010372;28;20467;-79
2023/03/20 06:17:58;;;;;;;22.47;10.23;;;8.10;99.90;;;;;;4985088;28;20035;-80
2023/03/20 06:20:24;;;;;;;17.67;8.80;;;8.10;99.90;;;;;;4978043;28;20034;-79
2023/03/20 06:22:50;;;;;;;18.70;8.37;;;8.10;99.90;;;;;;4994341;28;20502;-79
2023/03/20 06:25:16;;;;;;;21.53;10.63;;;8.10;99.90;;;;;;4983920;28;20031;-79
2023/03/20 06:27:42;;;;;;;21.77;10.33;;;8.20;99.90;;;;;;4958956;28;20050;-80
2023/03/20 06:30:09;;;;;;;23.07;9.93;;;8.20;99.90;;;;;;4987591;28;20025;-80
2023/03/20 06:32:35;;;;;;;18.17;8.83;;;8.20;99.90;;;;;;4977523;28;20053;-80
2023/03/20 06:35:00;;;;;;;20.63;10.47;;;8.20;99.90;;;;;;4976741;28;20023;-79
2023/03/20 06:37:26;;;;;;;21.23;9.27;;;8.30;99.90;;;;;;4974119;28;20113;-80
2023/03/20 06:39:52;;;;;;;22.63;10.60;;;8.30;99.90;;;;;;4975536;28;20443;-79
2023/03/20 06:42:17;;;;;;;23.20;10.13;;;8.30;99.90;;;;;;4975744;28;20031;-79
2023/03/20 06:44:43;;;;;;;20.43;10.20;;;8.30;99.90;;;;;;4977215;28;20030;-80
2023/03/20 06:47:09;;;;;;;24.53;9.13;;;8.30;99.90;;;;;;4980011;28;20387;-80
2023/03/20 06:49:35;;;;;;;23.10;9.87;;;8.30;99.90;;;;;;4945567;28;20038;-80
2023/03/20 06:52:01;;;;;;;23.80;10.33;;;8.30;99.90;;;;;;4966631;28;20093;-80
2023/03/20 06:54:27;;;;;;;20.27;10.07;;;8.40;99.90;;;;;;4950385;28;20037;-80
2023/03/20 06:56:53;;;;;;;19.47;10.97;;;8.40;99.90;;;;;;4965784;28;20038;-80
2023/03/20 06:59:18;;;;;;;24.47;10.93;;;8.40;99.90;;;;;;4965449;28;20035;-81
2023/03/20 07:01:44;;;;;;;23.00;10.83;;;8.40;99.80;;;;;;4942273;28;20039;-81
2023/03/20 07:04:10;;;;;;;21.17;10.00;;;8.40;99.80;;;;;;4973217;28;20376;-79
2023/03/20 07:06:35;;;;;;;19.80;10.53;;;8.40;99.80;;;;;;4951937;28;20395;-81
2023/03/20 07:09:01;;;;;;;21.33;10.33;;;8.40;99.90;;;;;;4930777;29;20039;-79
2023/03/20 07:11:27;;;;;;;17.07;9.00;;;8.40;99.80;;;;;;4957378;28;20031;-80
2023/03/20 07:13:53;;;;;;;29.30;10.63;;;8.50;99.80;;;;;;4972699;28;20043;-81
2023/03/20 07:16:19;;;;;;;22.57;9.90;;;8.50;99.70;;;;;;4970052;28;20078;-81
2023/03/20 07:18:45;;;;;;;19.60;9.10;;;8.50;99.70;;;;;;4933306;28;20118;-81
2023/03/20 07:21:20;;;;;;;20.87;9.83;;;8.50;99.60;;;;;;4955509;28;20117;-81
2023/03/20 07:23:46;;;;;;;19.40;9.67;;;8.50;99.60;;;;;;4972294;28;20034;-81
2023/03/20 07:26:12;;;;;;;19.43;9.63;;;8.50;99.50;;;;;;4939672;28;20035;-81
2023/03/20 07:28:38;;;;;;;20.33;9.90;;;8.60;99.50;;;;;;4969958;28;20104;-81
2023/03/20 07:31:04;;;;;;;19.33;9.57;;;8.60;99.70;;;;;;4941601;28;20114;-82
2023/03/20 07:33:30;;;;;;;17.83;9.83;;;8.60;99.40;;;;;;4958183;28;20030;-81
2023/03/20 07:35:56;;;;;;;24.30;10.47;;;8.60;99.40;;;;;;4957214;28;20480;-81
2023/03/20 07:38:22;;;;;;;21.97;10.37;;;8.60;99.00;;;;;;4964600;28;20031;-81
2023/03/20 07:40:48;;;;;;;21.80;10.30;;;8.60;99.00;;;;;;4963086;28;20097;-81
2023/03/20 07:43:17;;;;;;;18.53;8.87;;;8.70;99.00;;;;;;4969263;28;20487;-81
2023/03/20 07:45:43;;;;;;;18.53;10.17;;;8.70;99.00;;;;;;4958011;28;20054;-81
2023/03/20 07:48:09;;;;;;;22.83;9.80;;;8.70;98.80;;;;;;4992945;28;20046;-81
2023/03/20 07:50:35;;;;;;;15.60;8.20;;;8.70;98.70;;;;;;4992141;28;20057;-81
2023/03/20 07:53:00;;;;;;;20.73;8.57;;;8.70;98.80;;;;;;4970839;28;20467;-81
2023/03/20 07:55:26;;;;;;;19.43;9.17;;;8.70;98.70;;;;;;4976080;28;20494;-80
2023/03/20 07:57:51;;;;;;;22.23;8.57;;;8.70;98.60;;;;;;4978399;28;20442;-82
2023/03/20 08:00:19;;;;;;;20.47;8.70;;;8.80;98.50;;;;;;4973267;28;20050;-84
2023/03/20 08:02:44;;;;;;;16.83;7.67;;;8.80;98.60;;;;;;4991354;28;20101;-84
2023/03/20 08:05:10;;;;;;;22.80;10.17;;;8.80;98.50;;;;;;4988497;28;20031;-83
2023/03/20 08:07:36;;;;;;;20.80;8.80;;;8.80;98.40;;;;;;4976064;28;20041;-82
2023/03/20 08:10:02;;;;;;;22.90;9.27;;;8.80;98.30;;;;;;4991969;28;20026;-84
2023/03/20 08:12:28;;;;;;;17.27;7.67;;;8.90;98.20;;;;;;4991192;28;20030;-82
2023/03/20 08:14:54;;;;;;;21.03;9.10;;;8.90;98.10;;;;;;4975435;28;20057;-81
2023/03/20 08:17:20;;;;;;;22.37;8.37;;;8.90;98.00;;;;;;4975494;28;20488;-85
2023/03/20 08:19:46;;;;;;;23.33;9.30;;;8.90;97.80;;;;;;4980652;28;20394;-81
2023/03/20 08:22:12;;;;;;;18.47;8.57;;;8.90;97.80;;;;;;4992289;28;20089;-85
2023/03/20 08:24:37;;;;;;;22.47;7.73;;;9.00;97.70;;;;;;4973319;28;20427;-84
2023/03/20 08:27:03;;;;;;;15.60;7.80;;;9.00;97.70;;;;;;4991837;28;20081;-79
2023/03/20 08:29:29;;;;;;;20.10;7.43;;;9.10;97.60;;;;;;4959682;28;20053;-84
2023/03/20 08:31:56;;;;;;;24.90;8.20;;;9.10;97.30;;;;;;4987899;28;20023;-79
2023/03/20 08:34:21;;;;;;;13.77;7.07;;;9.10;97.10;;;;;;4972558;28;20170;-79
2023/03/20 08:36:47;;;;;;;15.47;7.40;;;9.10;97.00;;;;;;4959243;28;20493;-80
2023/03/20 08:39:13;;;;;;;16.53;7.47;;;9.10;97.00;;;;;;4959956;28;20022;-80
2023/03/20 08:41:40;;;;;;;17.37;7.10;;;9.20;97.00;;;;;;4978550;28;20027;-80
2023/03/20 08:44:07;;;;;;;19.00;7.33;;;9.20;96.80;;;;;;4975585;28;20403;-79
2023/03/20 08:46:32;;;;;;;16.90;6.37;;;9.30;96.80;;;;;;4972353;28;20523;-80
2023/03/20 08:48:59;;;;;;;15.53;6.77;;;9.30;96.30;;;;;;4955558;28;20109;-80
2023/03/20 08:51:25;;;;;;;17.90;6.90;;;9.40;96.10;;;;;;4925094;28;20464;-80
2023/03/20 08:53:50;;;;;;;16.00;7.20;;;9.40;95.90;;;;;;4956282;28;20030;-80
2023/03/20 08:56:16;;;;;;;17.20;7.33;;;9.40;95.80;;;;;;4957249;28;20526;-80
2023/03/20 08:58:42;;;;;;;20.33;6.67;;;9.40;95.80;;;;;;4959622;28;20062;-80
2023/03/20 09:01:09;;;;;;;19.53;8.07;;;9.50;95.70;;;;;;4960439;28;20023;-80
2023/03/20 09:03:35;;;;;;;15.43;6.53;;;9.60;95.50;;;;;;4966847;28;20535;-80
2023/03/20 09:06:05;;;;;;;15.63;7.20;;;9.60;94.90;;;;;;4976838;28;20018;-80
2023/03/20 09:08:31;;;;;;;16.17;5.70;;;9.60;94.80;;;;;;4960913;28;20122;-80
2023/03/20 09:10:57;;;;;;;13.10;5.07;;;9.60;94.60;;;;;;4976778;28;20113;-80
2023/03/20 09:13:24;;;;;;;12.30;5.53;;;9.60;94.60;;;;;;4976759;28;20027;-80
2023/03/20 09:15:50;;;;;;;18.07;5.97;;;9.70;94.50;;;;;;4974584;28;20039;-80
2023/03/20 09:18:16;;;;;;;21.70;5.23;;;9.80;94.60;;;;;;4958205;28;20042;-80
2023/03/20 09:20:42;;;;;;;22.77;6.33;;;9.90;94.60;;;;;;4975846;28;20030;-81
2023/03/20 09:23:07;;;;;;;17.17;6.27;;;9.90;94.00;;;;;;4976030;28;20056;-81
2023/03/20 09:25:33;;;;;;;12.87;5.43;;;10.00;93.90;;;;;;4959217;28;20022;-80
2023/03/20 09:27:58;;;;;;;11.03;4.60;;;9.90;93.40;;;;;;4976254;28;20082;-80
2023/03/20 09:30:24;;;;;;;11.70;4.80;;;10.00;93.30;;;;;;4959748;28;20034;-81
2023/03/20 09:32:50;;;;;;;13.97;5.10;;;10.10;93.20;;;;;;4959377;28;20039;-80
2023/03/20 09:35:17;;;;;;;12.60;4.87;;;10.10;92.70;;;;;;4944253;28;20031;-81
2023/03/20 09:37:43;;;;;;;16.93;5.47;;;10.10;92.00;;;;;;4959118;28;20038;-87
2023/03/20 09:40:24;;;;;;;15.47;6.03;;;10.10;91.90;;;;;;4976935;28;20462;-82
2023/03/20 09:43:19;;;;;;;14.37;5.37;;;10.10;91.80;;;;;;4975777;28;20031;-83
2023/03/20 09:45:54;;;;;;;15.43;5.17;;;10.10;91.80;;;;;;4977213;28;20031;-85
2023/03/20 09:48:40;;;;;;;13.90;5.30;;;10.10;92.10;;;;;;4978770;28;20050;-81
2023/03/20 09:51:27;;;;;;;12.70;4.63;;;10.10;92.40;;;;;;4978816;28;20482;-86
2023/03/20 09:54:00;;;;;;;18.73;6.47;;;10.10;92.80;;;;;;4979941;28;20495;-90
2023/03/20 09:56:28;;;;;;;15.57;6.05;;;10.10;92.80;;;;;;4996430;28;20021;-83
2023/03/20 09:58:57;;;;;;;14.73;5.50;;;10.10;93.00;;;;;;4983983;28;20490;-82
2023/03/20 10:01:28;;;;;;;14.17;5.37;;;10.10;93.30;;;;;;4995554;28;20034;-85
2023/03/20 10:04:06;;;;;;;17.43;5.77;;;10.00;93.30;;;;;;4976271;28;20106;-86
2023/03/20 10:06:32;;;;;;;12.20;4.47;;;10.10;93.70;;;;;;4972213;28;20026;-85
2023/03/20 10:08:58;;;;;;;15.77;5.77;;;10.10;93.80;;;;;;4994267;28;20042;-82
2023/03/20 10:12:03;;;;;;;12.17;5.27;;;10.20;94.00;;;;;;4978132;28;20411;-83
2023/03/20 10:14:59;;;;;;;13.30;4.95;;;10.30;94.20;;;;;;4925239;29;20080;-84
2023/03/20 10:18:02;;;;;;;18.40;5.37;;;10.40;94.20;;;;;;4921856;29;20106;-85
2023/03/20 10:20:33;;;;;;;11.50;4.40;;;10.50;93.80;;;;;;4973547;28;20042;-79
2023/03/20 10:23:15;;;;;;;12.33;4.80;;;10.60;93.80;;;;;;4977663;28;20026;-82
2023/03/20 10:25:45;;;;;;;13.77;5.17;;;10.60;93.60;;;;;;4995462;28;20022;-83
2023/03/20 10:28:11;;;;;;;14.87;4.73;;;10.70;93.30;;;;;;4995266;28;20042;-83
2023/03/20 10:31:14;;;;;;;12.17;4.67;;;10.70;93.50;;;;;;4994962;28;20030;-82
2023/03/20 10:34:21;;;;;;;10.40;4.13;;;10.80;92.90;;;;;;4978009;28;20026;-83
2023/03/20 10:36:57;;;;;;;12.77;4.63;;;10.80;92.70;;;;;;4977843;28;20034;-84
2023/03/20 10:39:49;;;;;;;16.27;4.50;;;10.70;92.90;;;;;;4994190;28;20482;-88
2023/03/20 10:42:18;;;;;;;11.30;4.47;;;10.80;92.80;;;;;;4994524;28;20585;-91
2023/03/20 10:45:03;;;;;;;8.60;3.77;;;10.80;92.80;;;;;;4994261;28;20033;-87
2023/03/20 10:47:34;;;;;;;12.90;4.30;;;10.90;92.80;;;;;;4978013;28;20439;-85
2023/03/20 10:50:10;;;;;;;12.18;3.55;;;10.90;92.60;;;;;;4998989;28;20050;-89
2023/03/20 10:52:40;;;;;;;17.52;3.65;;;10.90;92.00;;;;;;4997282;28;20023;-86
2023/03/20 10:55:21;;;;;;;8.93;2.97;;;10.90;91.60;;;;;;4982576;28;20030;-82
2023/03/20 10:58:23;;;;;;;9.85;3.15;;;10.90;91.40;;;;;;4977483;28;20123;-83
2023/03/20 11:00:49;;;;;;;7.28;2.65;;;10.80;91.40;;;;;;4961015;28;20877;-82
2023/03/20 11:03:26;;;;;;;8.27;2.60;;;10.80;91.70;;;;;;4981112;28;20475;-80
2023/03/20 11:06:00;;;;;;;10.37;2.67;;;10.90;91.80;;;;;;4976142;28;20035;-82
2023/03/20 11:08:30;;;;;;;;;;;10.90;91.90;;;;;;4995361;28;20089;-82
2023/03/20 11:11:00;;;;;;;8.30;2.90;;;10.90;92.00;;;;;;4994028;28;19910;-81
2023/03/20 11:13:30;;;;;;;10.93;3.00;;;10.90;91.80;;;;;;4992952;28;20109;-82
2023/03/20 11:16:18;;;;;;;11.27;3.07;;;11.00;91.90;;;;;;4994766;28;20023;-83
2023/03/20 11:18:44;;;;;;;10.73;3.33;;;11.00;91.40;;;;;;4991940;28;20030;-83
2023/03/20 11:21:20;;;;;;;8.57;2.80;;;10.90;91.40;;;;;;4976502;28;20031;-82
2023/03/20 11:23:46;;;;;;;10.30;2.63;;;10.90;91.20;;;;;;4996463;28;20030;-82
2023/03/20 11:26:18;;;;;;;9.20;2.83;;;10.80;91.10;;;;;;4986353;28;20501;-83
2023/03/20 11:28:49;;;;;;;9.40;2.47;;;10.80;91.40;;;;;;5001997;28;20064;-82
2023/03/20 11:31:26;;;;;;;9.80;3.30;;;10.80;91.30;;;;;;4995976;28;20085;-83
2023/03/20 11:34:05;;;;;;;12.10;2.70;;;10.70;91.40;;;;;;4995150;28;20034;-82
2023/03/20 11:36:33;;;;;;;9.43;2.57;;;10.70;91.20;;;;;;4994613;28;20030;-83
2023/03/20 11:39:12;;;;;;;8.23;3.00;;;10.70;91.30;;;;;;4993982;28;20034;-83
2023/03/20 11:41:59;;;;;;;10.80;3.13;;;10.70;91.30;;;;;;4992865;28;20370;-83
2023/03/20 11:44:34;;;;;;;8.07;2.63;;;10.80;91.30;;;;;;4992684;28;20023;-83
2023/03/20 11:47:09;;;;;;;11.02;3.30;;;10.80;91.20;;;;;;4976416;28;20495;-83
2023/03/20 11:49:52;;;;;;;9.07;3.40;;;10.80;90.90;;;;;;4993707;28;20042;-83
2023/03/20 11:52:27;;;;;;;8.90;2.53;;;10.90;90.80;;;;;;4976745;28;20022;-83
2023/03/20 11:54:55;;;;;;;10.07;2.92;;;11.00;90.60;;;;;;4976399;28;20387;-83
2023/03/20 11:57:36;;;;;;;9.48;3.30;;;11.00;90.60;;;;;;4976110;28;20046;-82
2023/03/20 12:00:06;;;;;;;9.55;3.92;;;11.00;90.60;;;;;;4993526;28;20037;-82
2023/03/20 12:02:34;;;;;;;11.00;3.70;;;11.00;90.60;;;;;;4993188;28;20073;-82
2023/03/20 12:05:00;;;;;;;10.13;3.00;;;11.00;90.60;;;;;;4992518;28;20027;-82
2023/03/20 12:07:34;;;;;;;11.83;3.20;;;11.10;90.40;;;;;;4994103;28;20081;-83
2023/03/20 12:10:04;;;;;;;14.05;3.33;;;11.00;90.20;;;;;;4976387;28;20113;-82
2023/03/20 12:12:54;;;;;;;9.27;3.47;;;11.00;90.20;;;;;;4978220;28;20374;-82
2023/03/20 12:15:28;;;;;;;12.47;3.43;;;11.00;90.30;;;;;;4990459;28;20383;-83
2023/03/20 12:18:15;;;;;;;7.40;3.50;;;10.90;90.10;;;;;;4991968;28;20022;-82
2023/03/20 12:21:18;;;;;;;8.27;3.40;;;10.90;90.30;;;;;;4993978;28;20359;-82
2023/03/20 12:23:57;;;;;;;12.87;3.80;;;10.90;90.50;;;;;;4975885;28;20474;-82
2023/03/20 12:26:41;;;;;;;12.53;4.63;;;10.90;90.80;;;;;;4976113;28;20030;-82
2023/03/20 12:29:34;;;;;;;16.38;4.53;;;10.80;91.00;;;;;;4990186;28;20050;-81
2023/03/20 12:32:08;;;;;;;14.70;4.17;;;10.70;91.40;;;;;;4995471;28;20030;-82
2023/03/20 12:34:42;;;;;;;15.02;4.10;;;10.70;92.00;;;;;;4998960;28;20081;-84
2023/03/20 12:37:09;;;;;;;;;;;10.60;92.20;;;;;;4982688;28;20054;-84
2023/03/20 12:39:44;;;;;;;13.13;4.30;;;10.60;92.70;;;;;;4982684;28;19905;-83
2023/03/20 12:42:23;;;;;;;13.83;5.00;;;10.60;92.90;;;;;;5000202;28;20033;-81
2023/03/20 12:44:51;;;;;;;14.63;5.93;;;10.50;93.20;;;;;;4998567;28;20030;-82
2023/03/20 12:47:26;;;;;;;12.40;4.90;;;10.60;93.50;;;;;;4998152;28;20046;-82
2023/03/20 12:50:01;;;;;;;14.07;4.80;;;10.60;93.60;;;;;;4998845;28;20114;-83
2023/03/20 12:52:45;;;;;;;16.10;5.00;;;10.60;93.60;;;;;;4982438;28;20134;-83
2023/03/20 12:55:44;;;;;;;16.58;4.88;;;10.60;93.90;;;;;;4999646;28;20474;-80
2023/03/20 12:58:31;;;;;;;16.17;5.83;;;10.70;93.80;;;;;;4999393;28;20030;-83
2023/03/20 13:01:05;;;;;;;14.03;6.07;;;10.60;94.10;;;;;;4999408;28;20497;-81
2023/03/20 13:03:31;;;;;;;;;;;10.60;94.30;;;;;;4982772;28;20579;-91
2023/03/20 13:06:15;;;;;;;20.10;6.60;;;10.60;94.70;;;;;;4982449;28;19909;-79